Time;durP1;ratioP1;P1;durP2;ratioP2;P2;SDS_P1;SDS_P2;PMS_P1;PMS_P2;Temp;Humidity;BMP_temperature;BMP_pressure;BME280_temperature;BME280_humidity;BME280_pressure;Samples;Min_cycle;Max_cycle;Signal;HPM_P1;HPM_P2
2022/06/14 00:01:20;;;;;;;6.42;4.58;;;;;;;24.40;48.26;153790.95;1655288;86;21095;-58
2022/06/14 00:03:48;;;;;;;7.85;5.20;;;;;;;24.34;48.37;153776.59;1655405;86;21442;-58
2022/06/14 00:06:24;;;;;;;7.83;5.00;;;;;;;24.35;48.49;153777.88;1657194;86;21998;-59
2022/06/14 00:08:51;;;;;;;7.45;4.40;;;;;;;24.44;48.45;153801.47;1655515;85;21050;-58
2022/06/14 00:11:24;;;;;;;6.42;4.53;;;;;;;24.57;48.13;153834.20;1655442;85;20973;-59
2022/06/14 00:13:53;;;;;;;5.42;4.50;;;;;;;24.61;47.89;153845.95;1656845;86;21103;-58
2022/06/14 00:16:20;;;;;;;9.00;4.92;;;;;;;24.52;48.14;153821.08;1655370;85;21056;-58
2022/06/14 00:18:47;;;;;;;8.13;4.62;;;;;;;24.48;48.47;153811.94;1655494;86;21097;-58
2022/06/14 00:21:14;;;;;;;7.10;4.75;;;;;;;24.53;48.36;153823.69;1655294;86;20997;-59
2022/06/14 00:23:42;;;;;;;8.88;4.97;;;;;;;24.51;48.26;153819.78;1656972;85;21035;-59
2022/06/14 00:26:11;;;;;;;8.18;5.00;;;;;;;24.39;48.54;153788.34;1655345;86;21911;-58
2022/06/14 00:28:39;;;;;;;7.95;5.05;;;;;;;24.30;48.87;153766.08;1655470;86;21001;-59
2022/06/14 00:31:11;;;;;;;8.20;5.10;;;;;;;24.30;48.98;153767.41;1655588;86;21207;-59
2022/06/14 00:33:39;;;;;;;7.03;4.95;;;;;;;24.33;48.94;153773.97;1654447;86;21000;-59
2022/06/14 00:36:22;;;;;;;8.20;5.42;;;;;;;24.22;48.95;153746.47;1655521;86;21512;-58
2022/06/14 00:38:50;;;;;;;8.68;5.05;;;;;;;24.10;49.42;153716.36;1657025;85;21509;-58
2022/06/14 00:41:40;;;;;;;6.70;5.00;;;;;;;24.07;49.64;153707.19;1655435;86;21000;-58
2022/06/14 00:44:15;;;;;;;8.03;5.00;;;;;;;24.09;49.72;153713.69;1655531;86;21276;-58
2022/06/14 00:46:50;;;;;;;10.35;5.03;;;;;;;24.03;49.89;153698.00;1654768;85;20995;-58
2022/06/14 00:49:22;;;;;;;5.58;4.83;;;;;;;23.97;50.24;153682.25;1627240;86;21049;-58
2022/06/14 00:52:13;;;;;;;5.78;4.85;;;;;;;23.98;50.39;153686.16;1686233;83;21094;-58
2022/06/14 00:54:40;;;;;;;7.12;4.50;;;;;;;24.05;50.38;153703.23;1666488;84;21109;-58
2022/06/14 00:57:21;;;;;;;8.45;4.58;;;;;;;23.96;50.33;153680.92;1627246;88;22226;-57
2022/06/14 00:59:53;;;;;;;8.30;4.95;;;;;;;23.84;50.63;153649.53;1655672;85;21056;-59
2022/06/14 01:02:35;;;;;;;4.78;4.05;;;;;;;23.70;51.05;153615.47;1657018;86;21083;-59
2022/06/14 01:05:04;;;;;;;4.70;4.15;;;;;;;23.61;51.39;153591.94;1655740;86;21023;-58
2022/06/14 01:07:36;;;;;;;6.25;4.37;;;;;;;23.56;51.64;153578.86;1655477;85;21021;-59
2022/06/14 01:10:08;;;;;;;8.90;4.03;;;;;;;23.45;51.88;153552.66;1655673;86;21069;-59
2022/06/14 01:12:38;;;;;;;7.92;4.10;;;;;;;23.36;52.28;153527.78;1657001;86;21459;-60
2022/06/14 01:15:22;;;;;;;6.47;4.25;;;;;;;23.32;52.54;153519.94;1655470;85;21043;-59
2022/06/14 01:18:00;;;;;;;6.90;4.33;;;;;;;23.18;52.77;153484.56;1655465;86;20991;-59
2022/06/14 01:20:27;;;;;;;6.78;4.33;;;;;;;22.97;53.39;153429.59;1656422;86;21087;-59
2022/06/14 01:22:55;;;;;;;5.10;4.10;;;;;;;22.77;54.15;153378.55;1655404;86;21232;-58
2022/06/14 01:25:24;;;;;;;8.35;4.25;;;;;;;22.70;54.78;153361.58;1655428;86;20977;-59
2022/06/14 01:27:51;;;;;;;6.72;4.55;;;;;;;22.67;54.98;153353.73;1655599;85;21025;-61
2022/06/14 01:30:22;;;;;;;6.08;4.37;;;;;;;22.58;55.44;153332.78;1655482;86;21005;-59
2022/06/14 01:33:16;;;;;;;6.37;4.70;;;;;;;22.61;55.81;153340.63;1657002;86;21019;-61
2022/06/14 01:35:45;;;;;;;6.10;4.37;;;;;;;22.66;55.87;153351.08;1654819;85;21305;-60
2022/06/14 01:38:14;;;;;;;6.78;4.62;;;;;;;22.55;56.09;153324.94;1655115;86;20996;-61
2022/06/14 01:41:17;;;;;;;6.90;4.30;;;;;;;22.40;56.72;153285.62;1656873;85;21401;-61
2022/06/14 01:44:22;;;;;;;6.40;4.58;;;;;;;22.32;57.22;153266.00;1655354;86;21021;-60
2022/06/14 01:47:21;;;;;;;6.87;4.70;;;;;;;22.32;57.27;153267.33;1616280;86;21513;-59
2022/06/14 01:53:46;;;;;;;6.00;4.47;;;;;;;22.46;57.51;153302.69;1655194;86;21048;-60
2022/06/14 01:56:40;;;;;;;5.62;4.20;;;;;;;22.77;56.78;153378.55;1657115;85;21083;-59
2022/06/14 01:59:28;;;;;;;8.85;4.15;;;;;;;22.83;56.39;153395.56;1655629;86;21509;-59
2022/06/14 02:02:24;;;;;;;6.22;4.50;;;;;;;22.82;56.51;153392.95;1655485;86;20997;-60
2022/06/14 02:05:23;;;;;;;5.90;4.53;;;;;;;22.85;56.53;153400.80;1655554;86;21254;-66
2022/06/14 02:08:06;;;;;;;5.03;4.40;;;;;;;22.82;56.45;153391.67;1655479;86;21040;-65
2022/06/14 02:10:42;;;;;;;5.75;4.45;;;;;;;22.78;56.77;153382.50;1655479;86;20912;-60
2022/06/14 02:13:24;;;;;;;8.13;4.45;;;;;;;22.82;56.77;153392.95;1655486;85;20956;-65
2022/06/14 02:16:26;;;;;;;9.60;4.50;;;;;;;22.83;56.49;153395.56;1666059;84;21470;-66
2022/06/14 02:19:11;;;;;;;5.87;4.47;;;;;;;22.75;56.66;153374.66;1676118;85;21462;-65
2022/06/14 02:21:48;;;;;;;7.60;4.45;;;;;;;22.77;56.79;153378.55;1676932;85;20958;-61
2022/06/14 02:24:29;;;;;;;9.83;4.30;;;;;;;22.88;56.54;153407.36;1676776;84;21472;-59
2022/06/14 02:27:05;;;;;;;11.57;4.87;;;;;;;22.96;56.29;153426.98;1676647;85;21068;-59
2022/06/14 02:29:53;;;;;;;7.05;4.45;;;;;;;22.91;56.49;153413.91;1676827;85;21017;-66
2022/06/14 02:32:43;;;;;;;6.80;4.80;;;;;;;22.97;56.50;153429.59;1676948;85;21300;-65
2022/06/14 02:35:16;;;;;;;9.38;4.95;;;;;;;23.12;56.21;153467.53;1631391;84;21025;-65
2022/06/14 02:37:57;;;;;;;10.85;5.00;;;;;;;23.26;55.64;153502.91;1676273;85;21539;-65
2022/06/14 02:40:29;;;;;;;12.33;5.30;;;;;;;23.34;55.48;153523.88;1676634;85;21073;-65
2022/06/14 02:43:04;;;;;;;7.25;4.83;;;;;;;23.52;55.17;153568.34;1676576;85;21088;-66
2022/06/14 02:45:37;;;;;;;12.20;5.37;;;;;;;23.70;54.62;153615.47;1676599;85;21315;-65
2022/06/14 02:48:18;;;;;;;10.55;5.60;;;;;;;23.89;53.93;153662.61;1675714;84;21030;-65
2022/06/14 02:50:54;;;;;;;11.35;5.05;;;;;;;23.93;53.47;153673.08;1675935;85;21474;-65
2022/06/14 02:53:29;;;;;;;7.53;4.70;;;;;;;23.88;53.35;153659.98;1676456;85;21020;-66
2022/06/14 02:56:13;;;;;;;6.90;4.58;;;;;;;23.86;53.37;153654.75;1676924;84;21017;-65
2022/06/14 02:58:55;;;;;;;6.65;4.22;;;;;;;23.87;53.19;153658.70;1672312;85;21810;-65
2022/06/14 03:01:27;;;;;;;8.38;4.85;;;;;;;23.91;53.04;153667.84;1677007;84;20965;-65
2022/06/14 03:04:17;;;;;;;9.43;4.45;;;;;;;23.98;52.97;153686.16;1677291;84;21096;-64
2022/06/14 03:06:57;;;;;;;7.72;4.22;;;;;;;24.08;52.74;153709.80;1676929;84;21051;-66
2022/06/14 03:09:26;;;;;;;9.63;4.30;;;;;;;24.07;52.44;153707.19;1677040;85;21109;-66
2022/06/14 03:12:17;;;;;;;6.95;4.33;;;;;;;24.00;52.50;153690.09;1676964;84;21220;-65
2022/06/14 03:15:01;;;;;;;6.87;4.37;;;;;;;24.00;52.64;153691.44;1676823;84;21005;-65
2022/06/14 03:17:54;;;;;;;10.15;4.95;;;;;;;24.16;52.49;153732.06;1653501;85;21575;-66
2022/06/14 03:20:40;;;;;;;7.70;4.75;;;;;;;24.30;51.97;153767.41;1677001;84;21056;-66
2022/06/14 03:23:33;;;;;;;7.75;4.17;;;;;;;24.36;51.77;153780.50;1677052;85;21554;-65
2022/06/14 03:26:13;;;;;;;7.93;4.03;;;;;;;24.40;51.76;153790.95;1644663;85;21887;-65
2022/06/14 03:28:49;;;;;;;8.38;4.40;;;;;;;24.46;51.63;153806.70;1677070;85;21009;-67
2022/06/14 03:31:33;;;;;;;7.35;4.05;;;;;;;24.52;51.37;153822.41;1676908;85;21005;-67
2022/06/14 03:34:06;;;;;;;9.38;4.12;;;;;;;24.58;51.22;153838.11;1676948;85;21076;-66
2022/06/14 03:36:34;;;;;;;4.80;3.80;;;;;;;24.63;51.31;153848.58;1677181;84;21408;-65
2022/06/14 03:39:09;;;;;;;9.48;3.80;;;;;;;24.73;51.14;153874.80;1677067;85;21725;-67
2022/06/14 03:41:39;;;;;;;7.42;3.87;;;;;;;24.86;50.93;153907.59;1677073;85;21132;-67
2022/06/14 03:44:06;;;;;;;9.33;4.10;;;;;;;24.99;50.81;153941.67;1676715;84;21112;-67
2022/06/14 03:46:44;;;;;;;4.78;4.00;;;;;;;25.15;50.70;153980.94;1676885;85;21101;-67
2022/06/14 03:49:21;;;;;;;6.05;4.03;;;;;;;25.28;50.38;154015.02;1676232;85;21021;-68
2022/06/14 03:52:04;;;;;;;6.60;3.92;;;;;;;25.38;49.82;154039.91;1677141;85;20957;-67
2022/06/14 03:55:16;;;;;;;5.80;4.20;;;;;;;25.40;49.60;154045.16;1675928;85;21049;-66
2022/06/14 03:58:22;;;;;;;6.28;4.10;;;;;;;25.48;49.57;154063.53;1677082;85;21482;-66
2022/06/14 04:00:56;;;;;;;7.00;3.65;;;;;;;25.55;49.65;154081.91;1676888;85;20981;-66
2022/06/14 04:03:52;;;;;;;5.53;4.50;;;;;;;25.58;49.22;154089.77;1677019;85;21089;-65
2022/06/14 04:06:58;;;;;;;5.60;4.40;;;;;;;25.60;49.13;154095.00;1677136;85;21250;-66
2022/06/14 04:09:47;;;;;;;11.40;3.85;;;;;;;25.63;48.56;154102.86;1676893;85;21021;-65
2022/06/14 04:12:28;;;;;;;5.15;3.42;;;;;;;25.70;48.03;154119.91;1677171;84;21030;-66
2022/06/14 04:15:24;;;;;;;6.53;3.65;;;;;;;25.91;47.62;154173.61;1676822;84;21062;-65
2022/06/14 04:18:00;;;;;;;4.20;3.70;;;;;;;26.17;46.66;154240.53;1676778;85;21066;-65
2022/06/14 04:20:38;;;;;;;3.75;3.02;;;;;;;26.35;46.08;154285.11;1676389;85;21229;-65
2022/06/14 04:23:37;;;;;;;7.53;3.67;;;;;;;26.50;45.55;154323.12;1676913;85;21088;-65
2022/06/14 04:26:47;;;;;;;8.18;3.72;;;;;;;26.67;44.97;154365.09;1676787;85;21022;-64
2022/06/14 04:29:29;;;;;;;8.18;3.65;;;;;;;26.84;44.36;154409.64;1650620;85;21070;-64
2022/06/14 04:32:03;;;;;;;10.03;4.45;;;;;;;27.05;44.01;154462.14;1676311;85;21029;-64
2022/06/14 04:34:42;;;;;;;10.70;5.12;;;;;;;27.24;43.62;154509.38;1676786;85;21103;-64
2022/06/14 04:37:25;;;;;;;13.48;6.30;;;;;;;27.50;43.68;154574.94;1676819;84;21100;-63
2022/06/14 04:40:00;;;;;;;11.93;5.58;;;;;;;27.81;44.24;154653.75;1671903;85;21041;-63
2022/06/14 04:42:41;;;;;;;9.85;4.80;;;;;;;28.16;45.00;154742.98;1676734;85;21539;-64
2022/06/14 04:45:30;;;;;;;8.08;5.08;;;;;;;28.45;45.77;154816.52;1676787;84;20985;-64
2022/06/14 04:48:02;;;;;;;15.25;4.97;;;;;;;28.70;45.90;154880.80;1676035;85;21455;-64
2022/06/14 04:50:56;;;;;;;17.77;5.17;;;;;;;28.94;45.11;154939.95;1676846;85;21451;-64
2022/06/14 04:53:28;;;;;;;9.88;5.08;;;;;;;29.04;45.20;154966.19;1676797;84;21033;-64
2022/06/14 04:56:01;;;;;;;8.95;4.75;;;;;;;29.20;45.44;155006.92;1676622;85;21448;-65
2022/06/14 04:58:46;;;;;;;7.90;4.78;;;;;;;29.33;45.23;155039.75;1676957;85;21008;-64
2022/06/14 05:01:39;;;;;;;6.08;4.35;;;;;;;29.49;44.49;155079.16;1677093;85;21202;-64
2022/06/14 05:04:29;;;;;;;13.03;4.55;;;;;;;29.65;42.48;155121.19;1657812;85;21033;-65
2022/06/14 05:07:20;;;;;;;7.20;4.62;;;;;;;29.71;40.69;155136.94;1676456;85;21037;-64
2022/06/14 05:10:01;;;;;;;12.13;4.70;;;;;;;29.73;39.86;155142.25;1676786;85;21140;-64
2022/06/14 05:12:54;;;;;;;11.93;4.60;;;;;;;29.79;39.97;155155.36;1676854;85;21111;-63
2022/06/14 05:15:27;;;;;;;13.28;3.83;;;;;;;29.91;39.94;155185.56;1676748;85;21244;-64
2022/06/14 05:18:09;;;;;;;8.73;4.40;;;;;;;30.11;39.45;155236.83;1676721;85;21089;-64
2022/06/14 05:20:50;;;;;;;6.95;4.30;;;;;;;30.33;39.97;155292.00;1674104;85;21009;-64
2022/06/14 05:23:39;;;;;;;7.90;4.28;;;;;;;30.57;40.18;155353.78;1690666;83;21043;-64
2022/06/14 05:26:23;;;;;;;8.58;4.58;;;;;;;30.86;39.53;155428.73;1691101;83;21058;-64
2022/06/14 05:29:19;;;;;;;9.18;5.22;;;;;;;31.19;38.67;155510.20;1691454;84;24361;-64
2022/06/14 05:32:07;;;;;;;8.10;4.65;;;;;;;31.35;38.16;155552.33;1691642;84;21050;-64
2022/06/14 05:35:22;;;;;;;12.93;4.97;;;;;;;31.52;37.73;155595.69;1691151;84;21113;-64
2022/06/14 05:38:19;;;;;;;9.40;4.53;;;;;;;31.64;37.16;155625.92;1691293;84;21030;-63
2022/06/14 05:40:58;;;;;;;7.40;4.33;;;;;;;31.81;36.46;155669.34;1690986;84;21030;-64
2022/06/14 05:43:34;;;;;;;9.40;4.62;;;;;;;32.00;36.20;155716.69;1676447;85;21515;-64
2022/06/14 05:46:09;;;;;;;7.03;3.85;;;;;;;32.16;35.94;155757.45;1647164;86;21076;-64
2022/06/14 05:48:54;;;;;;;;;;;;;;;32.36;35.77;155807.47;1669615;86;21073;-63
2022/06/14 05:51:24;;;;;;;6.30;3.17;;;;;;;32.53;35.54;155850.91;1665153;85;20149;-64
2022/06/14 05:54:24;;;;;;;5.75;3.72;;;;;;;32.72;34.64;155899.56;1676718;84;21053;-64
2022/06/14 05:57:07;;;;;;;5.70;3.60;;;;;;;32.88;34.84;155939.05;1676838;84;21233;-63
2022/06/14 05:59:59;;;;;;;6.40;3.95;;;;;;;33.06;34.46;155986.47;1676213;85;21120;-64
2022/06/14 06:02:58;;;;;;;5.60;3.45;;;;;;;33.16;34.48;156011.45;1676973;85;21478;-64
2022/06/14 06:05:47;;;;;;;7.87;3.90;;;;;;;33.32;34.05;156050.89;1676739;84;21048;-64
2022/06/14 06:08:37;;;;;;;6.53;3.80;;;;;;;33.46;33.73;156086.47;1676845;84;20998;-65
2022/06/14 06:11:21;;;;;;;7.62;4.28;;;;;;;33.62;33.57;156128.59;1677004;84;20997;-64
2022/06/14 06:13:57;;;;;;;5.87;3.67;;;;;;;33.74;34.00;156157.56;1674260;85;21411;-64
2022/06/14 06:19:31;;;;;;;5.35;3.62;;;;;;;33.96;33.81;156215.52;1660436;85;21069;-65
2022/06/14 06:22:11;;;;;;;5.67;4.00;;;;;;;34.07;33.86;156241.81;1671101;85;21155;-64
2022/06/14 06:24:53;;;;;;;9.95;3.50;;;;;;;34.10;33.29;156249.72;1675310;85;21149;-64
2022/06/14 06:27:24;;;;;;;10.95;3.58;;;;;;;34.04;32.30;156235.22;1675578;84;21586;-64
2022/06/14 06:30:23;;;;;;;6.90;3.42;;;;;;;33.74;31.85;156157.56;1674903;84;21061;-64
2022/06/14 06:32:51;;;;;;;10.32;3.67;;;;;;;33.56;31.85;156112.81;1675407;85;21100;-64
2022/06/14 06:35:18;;;;;;;8.13;3.33;;;;;;;33.54;31.80;156108.84;1673583;84;21026;-64
2022/06/14 06:38:12;;;;;;;7.60;3.20;;;;;;;33.61;31.88;156124.66;1667908;85;21383;-64
2022/06/14 06:41:49;;;;;;;5.65;2.85;;;;;;;33.78;30.97;156168.08;1619686;88;21057;-65
2022/06/14 06:43:14;;;;;;;3.72;2.80;;;;;;;33.93;30.59;156207.53;1644560;86;21099;-66
2022/06/14 06:45:44;;;;;;;8.48;2.80;;;;;;;34.10;30.03;156249.72;1654161;85;21064;-64
2022/06/14 06:48:20;;;;;;;6.87;2.98;;;;;;;34.17;29.64;156266.84;1661647;85;21448;-65
2022/06/14 06:50:55;;;;;;;4.95;2.70;;;;;;;34.22;29.41;156279.98;1671621;84;21917;-64
2022/06/14 06:53:24;;;;;;;3.83;2.90;;;;;;;34.22;29.51;156279.98;1671655;85;21079;-64
2022/06/14 06:56:12;;;;;;;5.47;2.87;;;;;;;34.21;29.41;156278.69;1671831;85;21112;-64
2022/06/14 06:58:52;;;;;;;5.20;3.20;;;;;;;34.24;29.15;156286.58;1671678;85;21056;-64
2022/06/14 07:01:34;;;;;;;8.08;3.40;;;;;;;34.21;30.43;156277.36;1671978;85;21116;-64
2022/06/14 07:05:14;;;;;;;3.60;3.22;;;;;;;34.05;30.75;156237.91;1671187;84;21583;-64
2022/06/14 07:06:56;;;;;;;4.10;3.15;;;;;;;33.98;30.89;156219.44;1674294;84;21120;-64
2022/06/14 07:09:30;;;;;;;8.08;2.77;;;;;;;34.02;30.95;156228.67;1652640;85;21041;-63
2022/06/14 07:12:15;;;;;;;3.75;3.25;;;;;;;34.09;30.56;156247.08;1669912;84;21017;-63
2022/06/14 07:14:58;;;;;;;;;;;;;;;33.98;30.82;156219.44;1666223;85;21021;-64
2022/06/14 07:17:50;;;;;;;7.72;3.50;;;;;;;33.84;31.16;156185.20;1672441;85;21952;-64
2022/06/14 07:20:30;;;;;;;7.67;3.90;;;;;;;33.65;31.71;156135.19;1670073;85;21531;-63
2022/06/14 07:23:06;;;;;;;6.08;3.62;;;;;;;33.51;32.02;156100.95;1668422;85;21558;-64
2022/06/14 07:25:40;;;;;;;4.70;3.80;;;;;;;33.33;32.56;156054.86;1667531;85;21022;-64
2022/06/14 07:28:22;;;;;;;8.50;3.70;;;;;;;33.20;32.79;156020.63;1626255;87;21128;-65
2022/06/14 07:30:53;;;;;;;4.28;3.60;;;;;;;33.10;32.98;155996.97;1646728;87;21239;-64
2022/06/14 07:33:26;;;;;;;6.90;4.15;;;;;;;33.13;33.11;156003.52;1647356;85;21037;-64
2022/06/14 07:36:02;;;;;;;6.00;4.05;;;;;;;33.09;33.76;155993.00;1657227;85;21009;-64
2022/06/14 07:38:57;;;;;;;11.12;4.40;;;;;;;33.15;34.15;156010.13;1657020;85;21130;-65
2022/06/14 07:41:35;;;;;;;8.98;4.37;;;;;;;33.19;34.28;156018.00;1629867;86;21124;-64
2022/06/14 07:44:19;;;;;;;6.22;4.40;;;;;;;32.98;34.67;155965.37;1647806;86;21519;-65
2022/06/14 07:47:11;;;;;;;6.50;4.22;;;;;;;32.85;34.95;155933.78;1629164;87;20969;-64
2022/06/14 07:49:45;;;;;;;6.35;4.20;;;;;;;32.89;35.19;155941.72;1655186;85;21074;-64
2022/06/14 07:52:26;;;;;;;9.13;4.03;;;;;;;32.86;35.37;155935.08;1647077;86;21072;-64
2022/06/14 07:55:01;;;;;;;11.53;4.12;;;;;;;32.81;35.50;155921.94;1634428;87;21114;-64
2022/06/14 07:57:33;;;;;;;9.30;4.50;;;;;;;32.69;35.78;155891.67;1647312;86;21171;-64
2022/06/14 08:03:32;;;;;;;10.00;4.33;;;;;;;32.54;35.59;155854.83;1647662;86;21075;-65
2022/06/14 08:06:04;;;;;;;7.90;4.12;;;;;;;32.23;36.27;155775.89;1619025;86;21125;-64
2022/06/14 08:08:38;;;;;;;4.40;4.00;;;;;;;32.00;36.80;155718.03;1628358;87;21088;-64
2022/06/14 08:11:19;;;;;;;7.03;4.12;;;;;;;31.90;37.01;155691.70;1650056;86;21933;-64
2022/06/14 08:14:05;;;;;;;6.60;4.30;;;;;;;32.11;37.16;155744.31;1646530;87;21013;-64
2022/06/14 08:16:35;;;;;;;6.05;4.42;;;;;;;32.35;36.95;155804.84;1646804;85;21089;-64
2022/06/14 08:19:13;;;;;;;10.38;4.33;;;;;;;32.57;36.83;155862.72;1649251;86;21052;-64
2022/06/14 08:21:47;;;;;;;8.73;4.30;;;;;;;32.71;37.51;155896.94;1649262;87;21060;-64
2022/06/14 08:24:23;;;;;;;11.12;3.92;;;;;;;32.77;37.43;155912.70;1642525;85;21181;-64
2022/06/14 08:27:01;;;;;;;10.25;4.08;;;;;;;32.76;37.18;155910.08;1677166;85;21024;-64
2022/06/14 08:29:47;;;;;;;8.23;3.85;;;;;;;32.57;37.33;155862.72;1676988;84;21044;-64
2022/06/14 08:32:42;;;;;;;6.95;4.42;;;;;;;32.38;37.41;155812.73;1676198;85;21053;-64
2022/06/14 08:35:19;;;;;;;7.15;4.25;;;;;;;32.43;37.80;155827.22;1676921;85;21032;-59
2022/06/14 08:37:58;;;;;;;5.28;4.30;;;;;;;32.46;38.23;155833.81;1676989;85;21096;-58
2022/06/14 08:40:50;;;;;;;14.63;4.60;;;;;;;32.49;38.31;155841.69;1676848;84;21009;-58
2022/06/14 08:43:29;;;;;;;8.25;4.25;;;;;;;32.23;38.57;155775.89;1676719;84;21136;-59
2022/06/14 08:46:23;;;;;;;5.28;4.47;;;;;;;31.99;39.21;155714.06;1676296;85;21419;-59
2022/06/14 08:49:32;;;;;;;9.70;4.37;;;;;;;32.00;38.91;155718.03;1676172;85;21091;-58
2022/06/14 08:52:30;;;;;;;9.30;5.03;;;;;;;32.15;38.33;155754.81;1676677;84;21519;-58
2022/06/14 08:55:13;;;;;;;8.45;4.20;;;;;;;32.26;37.93;155782.44;1676199;85;21065;-59
2022/06/14 08:58:19;;;;;;;8.60;4.17;;;;;;;32.13;38.37;155749.56;1663481;85;21071;-58
2022/06/14 09:00:59;;;;;;;8.05;4.50;;;;;;;31.89;38.76;155689.08;1676701;85;21460;-58
2022/06/14 09:03:56;;;;;;;4.45;3.60;;;;;;;31.76;38.77;155654.88;1676813;85;21025;-58
2022/06/14 09:07:17;;;;;;;5.42;4.65;;;;;;;31.67;38.97;155633.81;1676826;84;21294;-58
2022/06/14 09:10:08;;;;;;;8.28;4.72;;;;;;;31.62;39.56;155619.39;1676961;85;20903;-57
2022/06/14 09:12:44;;;;;;;6.95;4.42;;;;;;;31.54;39.92;155600.95;1676732;85;21068;-57
2022/06/14 09:15:40;;;;;;;12.23;4.75;;;;;;;31.26;40.91;155528.64;1673062;85;21209;-57
2022/06/14 09:18:31;;;;;;;10.28;4.62;;;;;;;30.96;42.07;155452.38;1676632;85;21065;-58
2022/06/14 09:21:19;;;;;;;5.87;4.62;;;;;;;30.99;41.81;155460.25;1676866;84;22789;-58
2022/06/14 09:24:27;;;;;;;10.43;4.53;;;;;;;31.01;42.11;155465.50;1676837;85;21072;-59
2022/06/14 09:27:32;;;;;;;7.95;4.62;;;;;;;31.03;42.17;155470.75;1676850;85;21104;-59
2022/06/14 09:30:36;;;;;;;12.37;4.30;;;;;;;31.06;41.70;155478.69;1676973;84;21028;-58
2022/06/14 09:33:38;;;;;;;9.70;4.57;;;;;;;31.02;41.23;155468.13;1677159;84;21124;-58
2022/06/14 09:36:28;;;;;;;5.58;4.45;;;;;;;30.89;40.84;155434.00;1676932;84;21240;-58
2022/06/14 09:39:25;;;;;;;10.10;4.62;;;;;;;30.72;40.74;155391.94;1676860;85;21751;-58
2022/06/14 09:42:20;;;;;;;7.33;4.10;;;;;;;30.55;41.23;155349.81;1677005;84;21045;-58
2022/06/14 09:45:31;;;;;;;7.78;4.05;;;;;;;30.50;41.70;155335.34;1676925;85;21030;-58
2022/06/14 09:48:41;;;;;;;7.65;3.80;;;;;;;30.46;42.27;155326.19;1676883;85;21105;-58
2022/06/14 09:51:17;;;;;;;8.85;3.95;;;;;;;30.37;41.99;155303.84;1676947;85;21219;-59
2022/06/14 09:54:06;;;;;;;6.53;3.87;;;;;;;30.16;42.56;155251.30;1676763;85;21490;-58
2022/06/14 09:57:12;;;;;;;4.10;3.70;;;;;;;30.10;42.82;155234.20;1676806;84;21013;-58
2022/06/14 10:00:13;;;;;;;7.08;4.37;;;;;;;30.03;43.13;155215.83;1676823;84;21029;-58
2022/06/14 10:03:11;;;;;;;7.30;3.98;;;;;;;29.87;43.54;155177.69;1676963;85;20953;-59
2022/06/14 10:06:09;;;;;;;8.73;4.53;;;;;;;29.86;43.25;155175.08;1676837;85;22174;-59
2022/06/14 10:09:15;;;;;;;10.08;4.00;;;;;;;29.81;43.23;155160.61;1676892;85;21489;-59
2022/06/14 10:12:19;;;;;;;9.00;4.37;;;;;;;29.56;43.65;155097.58;1676745;84;21181;-57
2022/06/14 10:15:18;;;;;;;7.53;3.95;;;;;;;29.44;43.86;155068.66;1677112;85;21029;-58
2022/06/14 10:18:00;;;;;;;6.97;4.45;;;;;;;29.44;43.83;155067.38;1602640;89;21260;-59
2022/06/14 10:20:57;;;;;;;9.28;4.35;;;;;;;29.31;43.54;155034.50;1657161;85;21256;-59
2022/06/14 10:23:47;;;;;;;11.30;4.40;;;;;;;29.10;44.13;154981.97;1672480;85;21049;-58
2022/06/14 10:29:47;;;;;;;9.15;3.90;;;;;;;29.20;44.43;155005.59;1651819;85;21046;-59
2022/06/14 10:32:34;;;;;;;9.28;4.03;;;;;;;29.14;45.00;154991.12;1629199;86;21079;-59
2022/06/14 10:35:22;;;;;;;7.72;3.80;;;;;;;29.08;45.56;154976.72;1628315;87;21151;-58
2022/06/14 10:38:22;;;;;;;7.75;4.08;;;;;;;29.13;45.31;154989.84;1602425;88;21044;-59
2022/06/14 10:41:24;;;;;;;10.03;3.98;;;;;;;29.13;44.90;154989.84;1628195;88;21079;-58
2022/06/14 10:44:14;;;;;;;5.65;3.30;;;;;;;28.98;45.36;154951.78;1629290;87;21159;-59
2022/06/14 10:47:08;;;;;;;9.93;4.35;;;;;;;28.92;45.03;154934.70;1628580;87;21502;-58
2022/06/14 10:49:55;;;;;;;8.38;4.25;;;;;;;28.79;45.73;154903.17;1629032;86;20956;-58
2022/06/14 10:52:47;;;;;;;7.15;4.25;;;;;;;28.84;45.55;154916.28;1629808;86;21407;-59
2022/06/14 10:55:42;;;;;;;5.25;4.15;;;;;;;28.75;45.77;154892.62;1615192;87;21062;-59
2022/06/14 10:58:51;;;;;;;7.33;3.98;;;;;;;28.59;46.18;154851.95;1642814;85;22110;-58
2022/06/14 11:02:05;;;;;;;7.08;4.10;;;;;;;28.47;46.47;154820.44;1647724;86;21016;-58
2022/06/14 11:05:04;;;;;;;8.45;4.50;;;;;;;28.45;46.80;154816.52;1603137;87;22597;-58
2022/06/14 11:07:58;;;;;;;7.72;3.67;;;;;;;28.51;46.79;154832.25;1680861;84;21026;-58
2022/06/14 11:11:01;;;;;;;9.63;4.37;;;;;;;28.56;46.78;154844.08;1653367;85;20988;-58
2022/06/14 11:13:48;;;;;;;7.85;4.03;;;;;;;28.65;46.78;154866.41;1640423;84;21071;-58
2022/06/14 11:16:44;;;;;;;8.70;4.62;;;;;;;28.80;46.70;154905.80;1680014;83;21053;-58
2022/06/14 11:19:32;;;;;;;8.10;3.90;;;;;;;29.04;46.62;154964.89;1665340;84;21529;-58
2022/06/14 11:22:14;;;;;;;8.08;4.00;;;;;;;29.25;45.84;155018.70;1680317;84;21072;-58
2022/06/14 11:24:52;;;;;;;7.65;4.12;;;;;;;29.28;44.73;155026.58;1694171;84;21064;-59
2022/06/14 11:27:50;;;;;;;5.28;4.08;;;;;;;29.22;44.90;155010.84;1668165;84;21080;-57
2022/06/14 11:31:02;;;;;;;7.47;3.72;;;;;;;29.31;44.75;155034.50;1672772;84;21081;-57
2022/06/14 11:34:20;;;;;;;9.53;3.77;;;;;;;29.33;44.71;155039.75;1671243;84;21037;-59
2022/06/14 11:37:29;;;;;;;10.20;3.90;;;;;;;29.34;44.64;155042.38;1620904;87;21061;-58
2022/06/14 11:40:23;;;;;;;5.53;3.85;;;;;;;29.25;44.66;155020.05;1676468;83;21075;-58
2022/06/14 11:43:28;;;;;;;6.03;3.67;;;;;;;29.11;44.37;154984.59;1649936;86;21017;-59
2022/06/14 11:46:06;;;;;;;6.85;3.60;;;;;;;28.77;44.92;154896.59;1647429;85;21069;-61
2022/06/14 11:48:45;;;;;;;4.65;3.35;;;;;;;28.43;45.83;154812.56;1651290;85;21858;-63
2022/06/14 11:51:48;;;;;;;5.80;4.10;;;;;;;28.37;46.34;154795.48;1650368;85;20969;-63
2022/06/14 11:54:44;;;;;;;7.58;3.40;;;;;;;28.29;46.56;154777.12;1635583;86;21066;-63
2022/06/14 11:57:22;;;;;;;4.42;3.70;;;;;;;28.26;46.92;154769.27;1644924;85;21172;-63
2022/06/14 12:00:01;;;;;;;5.15;3.77;;;;;;;28.16;47.17;154744.33;1677599;84;21028;-63
2022/06/14 12:02:43;;;;;;;8.43;3.83;;;;;;;28.06;47.66;154716.72;1650253;85;21687;-63
2022/06/14 12:05:38;;;;;;;5.47;3.33;;;;;;;28.02;48.11;154708.84;1650917;86;21116;-64
2022/06/14 12:08:25;;;;;;;4.62;3.25;;;;;;;28.12;47.95;154732.45;1684115;83;21025;-65
2022/06/14 12:11:07;;;;;;;6.00;3.80;;;;;;;28.09;47.74;154724.58;1625239;84;21099;-63
2022/06/14 12:13:51;;;;;;;3.55;3.22;;;;;;;28.06;47.49;154716.72;1670318;84;21518;-63
2022/06/14 12:16:42;;;;;;;6.25;3.17;;;;;;;28.02;47.44;154708.84;1658265;83;21139;-64
2022/06/14 12:19:33;;;;;;;7.97;3.20;;;;;;;28.02;47.52;154708.84;1656208;85;21076;-64
2022/06/14 12:22:28;;;;;;;3.85;3.25;;;;;;;28.14;46.90;154737.69;1633405;87;21104;-63
2022/06/14 12:28:09;;;;;;;6.95;3.00;;;;;;;28.13;46.11;154736.41;1648422;87;21100;-64
2022/06/14 12:30:37;;;;;;;3.80;3.05;;;;;;;28.03;46.11;154710.14;1612234;88;21262;-63
2022/06/14 12:33:29;;;;;;;6.00;3.10;;;;;;;27.93;46.25;154683.92;1648158;85;21021;-63
2022/06/14 12:36:17;;;;;;;9.85;3.60;;;;;;;27.85;46.44;154665.56;1618786;87;21068;-64
2022/06/14 12:38:44;;;;;;;3.52;2.90;;;;;;;27.79;46.49;154648.50;1670437;85;21081;-63
2022/06/14 12:41:21;;;;;;;4.15;3.42;;;;;;;27.77;46.52;154643.25;1648309;86;21048;-64
2022/06/14 12:44:15;;;;;;;4.12;3.30;;;;;;;27.79;46.79;154649.78;1604701;88;21209;-64
2022/06/14 12:46:44;;;;;;;4.00;3.10;;;;;;;27.77;46.72;154643.25;1671978;84;21044;-64
2022/06/14 12:49:34;;;;;;;5.28;3.40;;;;;;;27.71;47.08;154628.81;1646607;87;21024;-64
2022/06/14 12:52:17;;;;;;;4.28;2.70;;;;;;;27.76;46.48;154640.63;1662302;85;21088;-64
2022/06/14 12:55:04;;;;;;;5.33;2.83;;;;;;;27.72;46.76;154632.72;1664318;85;21525;-64
2022/06/14 12:58:09;;;;;;;4.33;2.80;;;;;;;27.66;47.01;154615.70;1648672;87;21233;-63
2022/06/14 13:01:05;;;;;;;4.83;2.70;;;;;;;27.65;46.59;154614.38;1638062;85;21053;-63